Date,TemperatureHighF,TemperatureAvgF,TemperatureLowF,DewpointHighF,DewpointAvgF,DewpointLowF,HumidityHigh,HumidityAvg,HumidityLow,PressureMaxIn,PressureMinIn,WindSpeedMaxMPH,WindSpeedAvgMPH,GustSpeedMaxMPH,PrecipitationSumIn
2013-1-1,25.9,20.5,10.5,24.0,16.2,8.0,92,83,73,30.29,30.14,8,3,12,0.00
2013-1-2,34.8,19.4,6.8,19.0,12.9,5.0,93,78,48,30.30,30.20,4,1,9,0.00
2013-1-3,38.8,29.8,19.1,28.0,23.8,17.0,92,79,60,30.41,30.23,10,2,17,0.00
2013-1-4,40.9,29.4,20.3,27.0,21.8,18.0,93,75,51,30.44,30.31,9,1,16,0.03
2013-1-5,46.3,35.5,25.4,33.0,28.0,21.0,86,75,56,30.31,30.09,6,1,14,0.01
2013-1-6,40.0,31.1,20.0,33.0,24.5,18.0,92,77,62,30.39,30.08,16,4,22,0.00
2013-1-7,47.7,32.5,19.3,30.0,25.2,17.0,94,76,49,30.40,30.15,5,2,12,0.00
2013-1-8,54.6,40.1,25.9,34.0,28.6,23.0,89,66,35,30.20,30.07,9,2,12,0.00
2013-1-9,54.6,46.3,40.7,41.0,35.3,30.0,83,67,44,30.46,30.16,11,2,12,0.00
2013-1-10,54.0,46.1,41.1,54.0,40.4,28.0,100,83,50,30.44,29.77,17,5,18,0.55
2013-1-11,64.6,54.1,47.2,53.0,49.7,47.0,100,86,62,29.85,29.72,11,2,15,0.20
2013-1-12,55.7,44.7,30.2,50.0,39.1,29.0,95,81,62,29.97,29.77,15,5,21,0.22
2013-1-13,30.0,22.7,14.8,29.0,19.6,13.0,95,87,80,30.39,29.92,12,4,15,0.00
2013-1-14,25.5,18.4,13.2,20.0,14.9,11.0,93,86,72,30.53,30.39,6,1,6,0.00
2013-1-15,28.5,21.7,13.4,23.0,17.2,-99.9,95,85,76,30.45,30.18,5,-10,8,0.00
2013-1-16,41.8,28.5,15.5,26.0,21.4,14.0,96,77,51,30.20,30.04,9,1,14,0.01
2013-1-17,38.1,30.9,21.3,30.0,23.6,18.0,92,75,54,30.49,30.14,17,3,18,0.00
2013-1-18,56.1,38.6,21.7,31.0,25.4,19.0,90,63,35,30.50,30.11,11,2,16,0.00
2013-1-19,61.4,49.3,39.5,38.0,33.2,29.0,66,55,41,30.13,29.90,10,3,19,0.00
2013-1-20,43.7,29.1,22.5,31.0,15.3,10.0,74,57,47,30.35,30.13,15,5,23,0.00
2013-1-21,21.9,17.9,13.0,15.0,3.6,-2.0,78,55,38,30.43,30.32,16,7,24,0.00
2013-1-22,17.6,13.6,10.7,11.0,5.8,-1.0,88,71,56,30.52,30.40,6,1,8,0.00
2013-1-23,41.9,25.2,9.2,26.0,17.2,7.0,93,73,52,30.40,30.17,13,2,20,0.00
2013-1-24,25.8,20.3,13.0,15.0,8.6,5.0,76,61,52,30.63,30.29,12,5,18,0.00
2013-1-25,42.0,32.6,23.8,23.0,18.9,13.0,71,58,45,30.30,30.12,9,2,13,0.00
2013-1-26,38.4,30.2,19.6,24.0,16.9,11.0,77,59,41,30.41,30.25,7,3,14,0.00
2013-1-27,51.4,37.2,29.0,50.0,33.8,20.0,99,88,66,30.30,29.93,11,5,20,0.04
2013-1-28,73.4,60.8,50.3,64.0,57.5,49.0,98,89,70,29.94,29.79,8,2,11,0.01
2013-1-29,67.6,60.2,52.0,62.0,58.2,52.0,100,93,82,29.79,29.39,12,3,23,1.48
2013-1-30,51.7,37.7,26.5,52.0,34.1,19.0,100,87,72,29.91,29.32,20,7,28,0.13
2013-1-31,30.2,22.8,10.0,23.0,14.4,1.0,83,70,53,30.42,29.91,17,6,31,0.00
2013-2-1,28.7,17.4,7.2,15.0,6.1,1.0,76,62,47,30.52,30.23,10,3,19,0.00
2013-2-2,40.3,32.1,26.7,27.0,21.4,14.0,94,65,53,30.22,30.05,12,3,21,0.00
2013-2-3,34.5,29.2,22.1,29.0,21.3,15.0,98,74,51,30.21,30.00,16,4,26,0.02
2013-2-4,51.6,36.1,28.0,36.0,27.6,20.0,86,72,52,30.00,29.81,17,4,20,0.00
2013-2-5,53.7,37.3,25.9,37.0,30.3,24.0,94,77,53,30.14,29.89,14,2,17,0.00
2013-2-6,50.9,38.9,25.7,35.0,31.5,25.0,98,77,53,30.23,30.04,9,3,15,0.00
2013-2-7,47.2,41.0,36.5,44.0,37.6,33.0,97,88,76,30.06,29.86,15,4,22,0.34
2013-2-8,36.2,33.9,30.3,35.0,30.5,27.0,95,87,80,30.38,30.07,14,4,20,0.00
2013-2-9,40.3,34.5,29.1,36.0,29.6,26.0,91,82,71,30.38,30.01,10,5,17,0.09
2013-2-10,58.1,47.4,38.1,53.0,41.2,30.0,96,81,46,30.02,29.53,21,6,29,0.34
2013-2-11,49.2,41.7,32.1,31.0,28.4,25.0,79,60,45,30.15,29.75,16,5,31,0.00
2013-2-12,42.5,34.8,24.2,31.0,27.8,23.0,96,77,57,30.17,29.95,6,1,9,0.00
2013-2-13,52.6,41.0,32.4,33.0,30.7,28.0,87,69,40,29.96,29.79,9,2,16,0.00
2013-2-14,53.0,43.9,34.8,37.0,33.3,29.0,90,68,48,30.05,29.80,13,3,19,0.00
2013-2-15,40.9,33.0,26.2,29.0,19.9,14.0,83,60,39,30.28,30.06,16,6,21,0.00
2013-2-16,35.6,26.1,17.7,17.0,14.7,12.0,84,64,40,30.29,30.18,12,4,14,0.00
2013-2-17,46.1,34.1,18.1,33.0,22.7,14.0,85,65,41,30.19,29.89,14,5,19,0.00
2013-2-18,56.6,44.6,32.3,48.0,38.6,24.0,94,80,68,29.89,29.52,19,5,37,0.34
2013-2-19,31.8,26.3,23.0,24.0,16.5,13.0,78,67,57,30.32,29.91,17,7,26,0.00
2013-2-20,24.6,20.3,14.8,15.0,11.8,9.0,85,70,59,30.45,30.32,9,2,15,0.00
2013-2-21,30.7,24.8,16.9,30.0,22.2,13.0,97,90,79,30.36,29.84,15,4,20,0.00
2013-2-22,33.4,29.8,20.9,33.0,27.1,18.0,98,90,74,30.08,29.80,9,2,20,0.00
2013-2-23,35.8,24.1,14.3,22.0,17.8,13.0,95,78,54,30.08,30.01,6,1,9,0.14
2013-2-24,44.0,31.8,14.9,29.0,22.6,13.0,96,72,49,30.14,30.04,9,2,11,0.12
2013-2-25,46.7,37.9,31.0,34.0,29.7,26.0,92,73,53,30.08,29.67,17,5,22,0.02
2013-2-26,35.7,33.9,32.4,35.0,33.3,31.0,99,97,94,29.67,29.37,20,7,28,0.91
2013-2-27,34.0,32.3,30.8,32.0,30.6,28.0,98,93,88,29.90,29.67,11,4,18,0.06
2013-2-28,34.5,31.9,30.3,30.0,29.2,28.0,96,89,81,30.12,29.90,11,4,15,0.00
2013-3-1,32.4,29.6,27.1,30.0,27.3,23.0,97,91,81,30.23,30.09,11,5,16,0.01
2013-3-2,32.7,27.2,18.1,24.0,20.0,14.0,90,75,58,30.28,30.22,14,5,20,0.00
2013-3-3,38.4,27.6,11.9,27.0,20.0,10.0,95,75,51,30.23,30.04,8,2,11,0.00
2013-3-4,49.6,40.2,33.8,37.0,31.7,27.0,84,72,57,30.04,29.75,14,6,23,0.01
2013-3-5,38.1,33.6,30.8,34.0,29.3,23.0,97,84,69,30.15,29.80,19,8,34,0.03
2013-3-6,36.6,30.7,23.7,27.0,23.6,21.0,90,75,61,30.39,30.15,22,6,28,0.00
2013-3-7,44.3,32.6,18.7,31.0,26.5,17.0,96,79,59,30.43,30.31,9,2,12,0.00
2013-3-8,51.4,41.0,30.7,37.0,32.7,28.0,89,73,54,30.42,30.18,14,6,20,0.00
2013-3-9,62.6,51.1,40.0,46.0,39.3,33.0,93,66,46,30.18,29.76,15,6,24,0.28
2013-3-10,59.0,51.7,44.1,54.0,49.5,41.0,98,92,57,29.78,29.61,9,2,14,1.05
2013-3-11,43.3,34.8,32.2,40.0,31.3,26.0,94,87,74,30.00,29.71,12,5,21,0.00
2013-3-12,46.7,36.1,27.7,32.0,26.9,24.0,88,70,52,30.22,29.98,23,5,24,0.00
2013-3-13,40.7,32.3,25.8,27.0,20.5,18.0,90,63,45,30.43,30.22,18,6,23,0.00
2013-3-14,55.4,38.4,23.1,35.0,27.8,18.0,87,68,43,30.41,30.08,11,2,15,0.00
2013-3-15,70.1,52.5,30.4,48.0,40.5,29.0,95,67,37,30.10,29.63,6,1,10,0.00
2013-3-16,63.1,46.0,37.7,48.0,39.4,33.0,91,78,54,30.05,29.62,19,4,26,0.00
2013-3-17,37.7,34.6,31.0,34.0,31.5,28.0,96,88,78,30.11,29.78,11,4,18,0.49
2013-3-18,50.8,38.6,33.8,39.0,32.7,22.0,98,82,45,30.03,29.70,16,4,25,0.27
2013-3-19,45.1,36.3,29.2,26.0,19.5,15.0,75,53,30,30.22,30.02,13,3,23,0.00
2013-3-20,34.6,30.1,25.2,30.0,17.5,12.0,83,60,44,30.30,30.13,16,6,27,0.00
2013-3-21,35.8,27.8,19.6,21.0,15.4,12.0,79,61,43,30.15,30.01,8,2,11,0.00
2013-3-22,40.3,34.6,29.0,26.0,23.5,20.0,77,65,51,30.06,29.99,9,3,11,0.00
2013-3-23,52.3,43.3,35.7,35.0,28.7,25.0,69,58,43,30.06,29.84,14,3,18,0.00
2013-3-24,40.8,31.7,30.4,34.0,29.8,-99.9,99,95,74,29.89,29.58,10,-7,15,0.05
2013-3-25,34.8,31.3,29.2,32.0,28.8,25.0,99,90,77,30.21,29.85,13,4,21,0.10
2013-3-26,40.0,34.1,26.8,28.0,25.7,22.0,84,72,56,30.36,30.21,9,3,15,0.10
2013-3-27,47.2,34.5,18.1,30.0,23.9,16.0,96,68,45,30.41,30.30,5,1,9,0.00
2013-3-28,53.2,43.6,35.1,39.0,31.7,25.0,72,63,54,30.36,30.23,9,3,16,0.00
2013-3-29,60.8,50.3,38.1,48.0,41.9,35.0,91,73,55,30.24,30.17,7,2,12,0.00
2013-3-30,55.8,47.5,42.3,47.0,43.7,40.0,98,87,64,30.19,29.91,12,2,17,0.11
2013-3-31,65.7,53.8,45.3,52.0,44.6,34.0,99,75,41,29.94,29.83,17,3,24,0.00
2013-4-1,46.8,40.9,35.4,34.0,25.8,20.0,74,56,38,30.24,29.95,12,6,18,0.00
2013-4-2,47.9,37.0,22.5,27.0,19.4,16.0,85,51,30,30.37,30.25,9,2,12,0.00
2013-4-3,51.9,41.9,30.2,29.0,24.3,19.0,69,51,35,30.41,30.25,12,3,20,0.00
2013-4-4,59.3,47.3,35.6,29.0,25.9,23.0,68,46,29,30.25,30.02,8,2,13,0.00
2013-4-5,67.5,53.3,38.1,39.0,34.9,26.0,78,52,30,30.18,30.00,7,2,12,0.00
2013-4-6,75.9,63.9,51.8,50.0,40.9,36.0,65,45,27,30.00,29.66,11,4,20,0.00
2013-4-7,78.4,65.7,50.4,59.0,50.1,45.0,84,60,32,29.89,29.71,12,4,18,0.00
2013-4-8,80.3,68.9,58.9,63.0,58.3,54.0,86,70,54,29.81,29.64,9,2,14,0.00
2013-4-9,79.4,70.1,64.7,64.0,61.0,58.0,84,73,59,29.82,29.75,12,3,16,0.00
2013-4-10,72.7,63.4,54.0,66.0,60.2,53.0,99,89,78,29.83,29.55,21,3,21,1.56
2013-4-11,56.4,45.2,39.9,56.0,41.1,32.0,100,86,72,29.73,29.62,12,4,18,0.12
2013-4-12,43.6,40.4,36.5,35.0,33.3,31.0,82,76,67,30.00,29.71,8,3,21,0.00
2013-4-13,60.7,48.2,35.0,42.0,36.7,33.0,91,67,44,30.06,29.88,9,3,15,0.00
2013-4-14,80.6,64.2,48.5,57.0,48.7,43.0,80,60,32,29.88,29.54,13,5,25,0.00
2013-4-15,64.5,57.6,49.3,62.0,55.3,47.0,98,92,72,30.01,29.69,13,3,26,0.24
2013-4-16,49.1,45.8,42.5,47.0,44.8,42.0,98,96,92,30.14,29.93,9,3,15,1.42
2013-4-17,84.3,57.6,47.2,71.0,55.0,46.0,100,92,60,30.12,29.63,11,4,17,0.10
2013-4-18,74.7,57.4,40.9,67.0,54.1,34.0,100,89,77,29.77,29.51,23,5,24,1.45
2013-4-19,50.2,42.7,37.4,32.0,29.8,28.0,76,62,44,30.05,29.73,20,6,33,0.00
2013-4-20,56.6,44.4,29.5,37.0,29.7,25.0,92,59,31,30.32,30.06,8,2,13,0.00
2013-4-21,62.1,51.9,43.0,45.0,38.8,34.0,72,62,48,30.40,30.22,14,7,19,0.00
2013-4-22,70.7,59.9,46.4,49.0,42.6,38.0,74,55,35,30.24,29.93,12,4,20,0.00
2013-4-23,60.4,49.4,38.6,54.0,45.9,38.0,99,89,65,30.03,29.87,13,4,18,0.61
2013-4-24,53.3,43.3,35.3,39.0,34.5,29.0,99,74,41,30.23,30.00,11,4,18,0.02
2013-4-25,64.9,51.4,38.3,38.0,34.2,31.0,81,55,32,30.34,30.21,11,2,16,0.00
2013-4-26,59.6,53.9,46.9,49.0,44.8,37.0,85,72,56,30.34,30.23,8,2,19,0.00
2013-4-27,52.6,50.8,48.3,52.0,49.5,46.0,99,95,85,30.26,29.92,6,2,8,0.75
2013-4-28,58.6,53.5,46.5,53.0,51.0,46.0,100,92,79,29.95,29.88,8,2,13,0.00
2013-4-29,80.8,64.0,46.4,64.0,56.6,46.0,99,79,51,29.91,29.71,11,3,16,0.00
2013-4-30,88.1,73.6,59.1,63.0,59.4,52.0,98,66,30,29.89,29.74,10,2,14,0.00
2013-5-1,83.7,72.0,57.8,62.0,58.1,53.0,91,64,39,30.03,29.90,7,2,13,0.00
2013-5-2,67.1,56.0,42.0,62.0,50.9,41.0,98,84,67,30.15,30.01,14,6,20,0.29
2013-5-3,42.3,40.7,38.8,42.0,40.5,39.0,100,99,98,30.08,29.81,12,4,18,2.10
2013-5-4,47.5,43.6,39.4,45.0,42.3,39.0,100,95,84,30.01,29.82,5,1,7,0.01
2013-5-5,63.4,53.4,43.6,58.0,51.6,43.0,100,94,79,30.00,29.89,10,2,10,0.10
2013-5-6,72.8,61.7,53.4,58.0,55.1,52.0,97,80,54,29.98,29.91,10,3,18,0.00
2013-5-7,79.5,67.6,56.0,62.0,55.5,45.0,92,68,31,30.00,29.93,7,2,9,0.00
2013-5-8,82.7,66.9,53.0,62.0,56.2,49.0,99,73,36,30.01,29.92,7,1,11,0.00
2013-5-9,73.6,65.0,59.9,66.0,60.2,-99.9,97,87,70,29.94,29.80,7,-10,14,0.16
2013-5-10,63.2,59.6,54.9,61.0,57.1,52.0,98,91,83,29.98,29.81,17,3,17,0.00
2013-5-11,66.9,57.9,50.0,57.0,45.7,34.0,98,67,37,30.15,29.96,19,5,29,0.00
2013-5-12,61.4,51.2,38.1,40.0,33.7,29.0,89,54,32,30.22,30.12,12,3,18,0.00
2013-5-13,75.0,53.4,37.2,49.0,38.1,-99.9,98,65,29,30.21,29.99,6,-24,9,0.00
2013-5-14,92.6,74.9,54.6,62.0,55.1,47.0,83,54,29,29.98,29.73,6,2,13,0.00
2013-5-15,91.6,78.8,68.3,69.0,60.5,53.0,77,54,39,29.87,29.75,7,2,10,0.00
2013-5-16,83.0,73.8,62.0,70.0,64.6,58.0,94,74,52,29.90,29.80,13,2,13,0.00
2013-5-17,76.2,68.7,58.9,69.0,63.9,57.0,95,85,70,29.93,29.87,9,2,13,0.00
2013-5-18,81.9,72.5,62.4,68.0,66.0,62.0,99,81,61,29.97,29.83,9,3,17,0.00
2013-5-19,90.9,79.5,69.0,77.0,69.8,66.0,90,73,52,29.86,29.63,12,3,18,0.00
2013-5-20,83.1,72.5,62.3,72.0,66.5,60.0,99,82,60,29.83,29.64,10,3,21,2.24
2013-5-21,80.8,70.8,65.3,70.0,60.6,-99.9,93,76,65,29.76,0.00,7,-29,11,0.00
2013-5-22,74.6,67.9,64.1,65.0,60.2,56.0,97,78,57,29.83,29.63,9,2,15,0.02
2013-5-23,65.0,61.2,55.0,59.0,55.5,52.0,95,82,74,30.21,29.84,14,4,20,0.00
2013-5-24,69.5,57.9,47.9,51.0,45.6,39.0,96,66,40,30.40,30.21,12,2,16,0.01
2013-5-25,67.8,59.6,51.6,58.0,52.3,46.0,92,77,63,30.32,30.11,10,2,15,0.24
2013-5-26,81.2,67.3,56.8,72.0,60.6,51.0,99,80,65,30.16,29.94,10,4,24,0.53
2013-5-27,79.5,68.5,64.1,74.0,66.7,64.0,100,94,76,30.00,29.71,9,1,22,0.34
2013-5-28,84.6,73.0,66.0,77.0,68.9,65.0,97,87,71,29.87,29.74,6,2,18,0.23
2013-5-29,87.2,77.1,66.6,72.0,66.7,62.0,90,72,54,29.90,29.76,9,2,12,0.23
2013-5-30,83.6,74.8,65.2,75.0,68.7,64.0,98,82,67,29.84,29.72,15,4,25,0.25
2013-5-31,79.8,69.0,63.3,75.0,67.4,63.0,100,94,83,29.86,29.65,8,2,21,0.25
2013-6-1,77.6,68.7,63.9,70.0,64.4,58.0,100,87,60,29.86,29.67,8,3,21,0.00
2013-6-2,66.3,62.7,57.7,59.0,57.3,53.0,91,83,74,30.01,29.84,9,3,16,0.00
2013-6-3,71.2,61.9,54.1,56.0,52.4,48.0,92,72,56,30.08,29.97,6,1,10,0.01
2013-6-4,72.5,64.0,53.5,60.0,56.4,52.0,97,77,60,30.06,29.96,9,2,11,0.01
2013-6-5,80.9,68.6,57.1,66.0,61.7,56.0,98,81,45,29.99,29.83,5,1,7,0.00
2013-6-6,76.3,68.7,61.4,66.0,61.0,56.0,100,78,52,29.85,29.79,9,3,14,0.00
2013-6-7,74.4,65.2,58.7,61.0,58.7,56.0,96,80,59,29.89,29.84,9,2,13,0.00
2013-6-8,81.5,68.9,55.4,64.0,58.5,55.0,99,72,43,29.94,29.85,5,1,9,0.00
2013-6-9,77.0,68.0,62.4,66.0,62.4,60.0,97,83,66,29.89,29.75,8,1,15,0.00
2013-6-10,78.8,69.3,62.6,67.0,64.3,62.0,98,85,63,29.88,29.74,9,2,13,0.00
2013-6-11,90.8,77.1,60.7,76.0,70.0,60.0,100,80,59,29.92,29.80,7,1,10,0.00
2013-6-12,93.4,84.4,72.1,78.0,73.8,69.0,92,71,55,29.89,29.67,13,2,19,0.01
2013-6-13,83.2,74.6,65.6,73.0,64.9,60.0,93,73,48,29.96,29.70,16,3,20,0.01
2013-6-14,83.0,71.9,60.8,67.0,62.4,59.0,95,73,54,30.07,29.90,9,2,14,0.00
2013-6-15,89.3,75.3,66.6,75.0,66.4,-99.9,96,77,58,30.06,29.88,16,-10,20,0.00
2013-6-16,83.7,74.2,67.6,76.0,71.5,67.0,99,91,75,29.97,29.87,4,1,8,0.00
2013-6-17,83.7,74.9,67.2,77.0,71.8,65.0,100,90,78,29.91,29.83,7,1,10,0.00
2013-6-18,87.4,75.1,63.9,71.0,65.2,61.0,98,74,42,29.94,29.88,9,2,13,0.00
2013-6-19,90.4,74.7,63.6,69.0,64.5,60.0,89,72,45,30.03,29.95,6,1,9,0.06
2013-6-20,90.9,79.6,66.1,73.0,69.2,64.0,96,72,51,30.07,29.98,8,1,12,0.06
2013-6-21,92.7,82.6,72.0,79.0,73.5,69.0,91,75,59,30.05,29.92,10,2,10,0.00
2013-6-22,88.1,76.5,69.9,80.0,71.4,65.0,95,84,77,30.04,29.95,14,2,17,0.04
2013-6-23,90.1,72.4,68.3,77.0,65.8,-99.9,100,84,65,30.00,29.91,13,-19,21,0.19
2013-6-24,93.7,80.5,67.2,79.0,73.3,67.0,100,81,57,30.03,29.86,4,1,9,0.19
2013-6-25,92.2,83.7,75.2,79.0,75.3,72.0,90,76,63,29.91,29.74,4,1,12,0.00
2013-6-26,91.8,78.7,72.2,81.0,73.6,-99.9,100,87,68,29.80,29.68,11,-9,17,0.56
2013-6-27,91.7,80.6,69.8,76.0,72.7,69.0,100,79,53,29.85,29.74,6,1,11,0.00
2013-6-28,85.7,79.6,72.6,73.0,67.3,60.0,94,68,42,29.82,29.66,11,3,19,0.00
2013-6-29,79.4,71.0,65.7,69.0,64.1,61.0,94,79,64,29.71,29.62,14,3,29,0.23
2013-6-30,77.2,68.9,63.7,66.0,64.2,61.0,95,85,66,29.90,29.72,12,3,14,0.03
2013-7-1,79.1,71.1,63.5,64.0,57.4,53.0,91,63,48,29.96,29.89,11,3,18,0.03
2013-7-2,69.3,65.3,61.2,64.0,58.9,54.0,98,81,58,30.02,29.93,7,2,15,0.03
2013-7-3,82.5,70.6,61.2,67.0,63.5,61.0,100,80,55,30.05,29.97,5,1,12,0.04
2013-7-4,85.6,74.4,62.5,68.0,63.9,60.0,94,71,50,30.06,29.96,6,1,8,0.00
2013-7-5,84.3,75.2,65.7,73.0,67.4,63.0,98,78,55,30.04,29.95,8,2,12,0.00
2013-7-6,88.9,76.1,66.6,73.0,68.6,64.0,99,79,51,30.01,29.91,6,1,7,0.00
2013-7-7,92.7,79.7,66.1,77.0,70.7,64.0,97,76,56,29.99,29.93,9,1,10,0.00
2013-7-8,93.7,82.2,74.5,81.0,73.6,69.0,88,76,58,30.04,29.95,4,1,8,0.00
2013-7-9,94.5,84.9,76.9,80.0,75.8,72.0,88,75,58,29.99,29.86,4,1,9,0.00
2013-7-10,80.7,78.1,72.6,76.0,73.4,70.0,94,85,79,29.93,29.84,9,1,14,0.16
2013-10-19,57.0,47.4,45.5,40.0,29.8,-99.9,78,65,54,29.96,29.92,5,-34,12,0.00
2013-10-20,72.2,56.0,40.4,48.0,42.9,38.0,92,65,37,29.95,29.81,6,2,14,0.00
2013-10-21,56.5,48.7,33.5,46.0,39.7,32.0,94,72,48,30.05,29.89,7,2,15,0.00
2013-10-22,61.3,42.9,31.7,48.0,39.3,31.0,98,88,59,30.05,29.79,11,2,23,0.15
2013-10-23,49.0,41.4,34.8,38.0,34.5,29.0,95,78,50,30.14,30.00,8,2,13,0.15
2013-10-24,46.5,39.1,25.3,38.0,30.7,24.0,93,74,49,30.41,30.12,10,2,18,0.00
2013-10-25,55.7,39.4,24.2,36.0,29.0,23.0,97,70,36,30.51,30.19,8,1,10,0.00
2013-10-26,63.1,49.2,39.2,44.0,34.8,28.0,74,59,39,30.20,30.00,9,2,16,0.00
2013-10-27,61.3,42.7,27.6,44.0,31.4,26.0,98,69,33,30.12,30.00,4,0,7,0.00
2013-10-28,68.0,50.7,33.3,47.0,40.1,31.0,97,70,39,30.22,30.04,6,1,7,0.00
2013-10-29,56.8,53.7,48.4,56.0,47.7,39.0,99,82,60,30.23,30.03,8,2,12,0.12
2013-10-30,70.4,63.3,56.7,68.0,62.4,57.0,100,96,88,30.04,29.78,4,1,10,0.07
2013-10-31,65.0,59.5,46.6,65.0,58.6,46.0,99,96,91,29.77,29.36,5,2,15,0.15
2013-11-1,59.8,51.1,45.5,47.0,44.9,42.0,99,81,59,29.85,29.59,9,2,18,0.16
2013-11-2,54.6,46.4,34.2,43.0,39.9,33.0,97,79,54,30.18,29.84,10,2,15,0.00
2013-11-3,57.7,45.4,31.7,46.0,36.0,31.0,99,73,43,30.29,30.12,11,2,14,0.00
2013-11-4,60.5,52.1,46.8,48.0,42.7,37.0,80,71,60,30.20,30.07,14,3,14,0.00
2013-11-5,59.4,55.5,51.5,55.0,52.0,48.0,98,88,79,30.23,29.95,9,2,12,0.07
2013-11-6,58.6,47.7,34.9,58.0,45.6,33.0,99,92,81,30.26,29.87,13,3,18,0.62
2013-11-7,56.2,40.8,28.2,41.0,33.9,28.0,99,79,45,30.38,30.27,9,1,15,0.00
2013-11-8,57.6,44.7,28.1,40.0,33.7,27.0,98,69,37,30.36,30.04,10,2,15,0.01
2013-11-9,67.4,54.4,42.6,44.0,39.6,36.0,79,59,37,30.23,30.02,10,2,14,0.00
2013-11-10,54.7,44.8,37.1,38.0,33.2,29.0,77,65,40,30.42,30.24,6,1,10,0.00
2013-11-11,62.3,46.4,31.4,51.0,39.2,28.0,94,77,58,30.51,30.11,19,4,22,0.05
2013-11-12,34.6,27.5,18.3,28.0,18.8,14.0,88,71,53,30.79,30.51,15,4,20,0.05
2013-11-13,47.1,31.4,15.4,24.0,17.0,14.0,95,61,27,30.72,30.29,8,2,13,0.00
2013-11-14,60.0,43.9,29.2,27.0,21.4,18.0,66,44,21,30.29,30.02,11,2,17,0.00
2013-11-15,59.2,47.6,41.1,43.0,36.1,27.0,88,66,41,30.05,29.90,7,2,12,0.02
2013-11-16,64.9,57.9,46.9,61.0,53.8,44.0,92,86,77,29.90,29.59,10,3,19,0.00
2013-11-17,74.7,63.2,47.5,66.0,51.9,30.0,96,70,30,29.95,29.34,22,5,38,0.18
2013-11-18,55.1,45.1,34.7,41.0,34.5,28.0,91,69,37,30.30,29.95,13,2,20,0.00
2013-11-19,48.2,38.8,31.0,32.0,29.6,27.0,94,71,47,30.36,30.21,7,2,12,0.00
2013-11-20,47.4,40.3,35.5,43.0,35.2,29.0,95,82,71,30.21,30.01,12,4,16,0.36
2013-11-21,50.6,48.8,45.4,50.0,46.9,43.0,99,93,84,30.20,30.06,5,1,15,0.10
2013-11-22,45.5,36.4,31.2,45.0,34.5,29.0,99,92,86,30.55,30.21,15,6,19,0.12
2013-11-23,31.0,25.4,17.0,29.0,18.4,11.0,93,75,59,30.76,30.53,12,6,22,0.00
2013-11-24,30.0,20.9,12.0,15.0,11.6,9.0,91,69,43,30.79,30.45,6,1,9,0.00
2013-11-25,35.4,31.6,26.3,26.0,19.6,15.0,72,62,52,30.44,30.18,6,1,10,0.00
2013-11-26,37.3,31.0,22.5,29.0,22.7,12.0,85,72,58,30.28,30.10,19,5,25,0.00
2013-11-27,28.5,21.7,16.7,14.0,11.2,10.0,81,65,46,30.40,30.27,11,4,17,0.00
2013-11-28,44.7,31.8,19.6,26.0,19.9,13.0,77,62,48,30.52,30.24,8,2,13,0.00
2013-11-29,43.9,33.7,22.7,29.0,23.7,18.0,81,67,50,30.59,30.37,9,3,11,0.00
2013-11-30,57.9,41.6,29.4,41.0,33.9,27.0,94,76,53,30.37,30.07,7,1,13,0.00
2013-12-1,56.5,43.1,31.3,44.0,36.0,31.0,98,78,49,30.12,29.88,5,1,7,0.00
2013-12-2,56.1,44.2,36.5,45.0,39.0,32.0,95,82,66,29.90,29.65,5,1,8,0.00
2013-12-3,60.3,49.7,40.9,54.0,47.6,40.0,99,92,75,29.67,29.58,8,1,12,0.00
2013-12-4,67.6,52.6,34.6,58.0,48.9,30.0,99,88,60,29.87,29.47,17,4,21,0.00
2013-12-5,33.8,26.1,22.5,30.0,18.1,12.0,85,72,63,30.32,29.88,16,5,20,0.00
2013-12-6,23.4,19.4,13.9,14.0,8.9,4.0,71,64,55,30.64,30.30,10,5,15,0.00
2013-12-7,22.5,16.2,9.2,9.0,6.1,4.0,81,65,49,30.75,30.50,7,3,12,0.00
2013-12-8,26.0,23.0,19.0,24.0,19.7,10.0,95,87,65,30.49,30.03,10,3,11,0.00
2013-12-9,26.1,21.8,18.2,24.0,15.6,12.0,90,77,63,30.36,30.11,13,3,16,0.00
2013-12-10,34.3,22.4,12.5,17.0,12.7,8.0,83,68,46,30.33,30.25,9,2,23,0.00
2013-12-11,29.6,21.2,6.6,22.0,11.6,-1.0,82,67,46,30.68,30.30,14,4,25,0.00
2013-12-12,40.9,22.6,3.8,17.0,9.8,-1.0,87,61,35,30.66,30.27,7,1,13,0.00
2013-12-13,35.0,30.0,22.5,32.0,25.1,16.0,97,82,62,30.27,29.95,8,2,12,0.24
2013-12-14,33.1,30.3,25.2,33.0,29.3,23.0,98,96,90,30.16,29.85,13,4,24,0.25
2013-12-15,35.8,26.6,19.5,28.0,22.8,17.0,95,86,69,30.20,30.04,8,1,15,0.03
2013-12-16,32.5,26.7,22.3,29.0,24.9,21.0,96,93,84,30.16,30.01,7,2,12,0.03
2013-12-17,41.7,31.9,23.2,32.0,26.1,20.0,97,80,59,30.28,30.14,11,2,17,0.13
2013-12-18,51.1,35.8,19.2,35.0,25.7,16.0,89,69,45,30.27,29.92,14,2,14,0.04
2013-12-19,56.6,48.6,40.2,48.0,43.6,35.0,91,83,70,29.92,29.75,6,1,11,0.04
2013-12-20,63.2,47.1,33.2,58.0,45.0,32.0,96,92,83,29.86,29.68,8,2,14,0.00
2013-12-21,33.1,31.8,31.1,32.0,31.1,30.0,98,97,95,29.84,29.58,4,2,9,0.31
2013-12-22,32.3,30.3,22.4,32.0,29.0,19.0,98,95,87,30.30,29.65,7,2,10,0.00
2013-12-23,21.9,17.7,8.8,19.0,14.3,4.0,90,86,77,30.62,30.31,7,3,10,0.00
2013-12-24,21.9,13.9,3.9,14.0,6.6,0.0,86,73,58,30.66,30.36,9,2,15,0.00
2013-12-25,33.3,29.3,22.1,31.0,25.1,14.0,91,84,70,30.37,30.24,11,2,14,0.00
2013-12-26,47.3,35.3,21.8,39.0,27.9,21.0,97,76,48,30.37,30.23,7,1,13,0.01
2013-12-27,54.1,39.9,27.4,34.0,29.9,24.0,94,69,46,30.38,30.21,5,1,10,0.01
2013-12-28,58.6,44.3,32.3,36.0,30.7,28.0,85,61,36,30.22,29.90,6,1,12,0.00
2013-12-29,40.4,27.2,14.1,32.0,21.1,4.0,89,78,65,30.30,29.84,19,6,21,0.00
2013-12-30,26.7,16.7,6.1,15.0,5.3,-1.0,78,62,47,30.39,30.23,9,2,12,0.00
2013-12-31,42.7,32.3,21.9,25.0,20.4,15.0,79,62,48,30.42,30.15,7,2,12,0.00
2014-1-1,40.0,31.1,21.9,29.0,24.8,21.0,94,78,60,30.15,30.04,11,3,14,0.00
2014-1-2,21.2,14.6,3.7,20.0,10.3,0.0,94,83,70,30.52,30.10,14,6,21,0.00